createdAt,value
2019-02-26T00:02:02.585Z,101299.56
2019-02-26T00:04:36.873Z,101301.41
2019-02-26T00:07:09.183Z,101297.53
2019-02-26T00:09:41.580Z,101296.39
2019-02-26T00:12:13.982Z,101292.43
2019-02-26T00:14:47.560Z,101292.52
2019-02-26T00:17:21.823Z,101289.33
2019-02-26T00:19:54.398Z,101293.14
2019-02-26T00:22:26.817Z,101289.25
2019-02-26T00:25:00.913Z,101278.91
2019-02-26T00:27:35.037Z,101278.93
2019-02-26T00:30:11.185Z,101276.91
2019-02-26T00:32:43.350Z,101280.57
2019-02-26T00:35:16.491Z,101286.22
2019-02-26T00:37:51.103Z,101287.17
2019-02-26T00:40:25.065Z,101285.68
2019-02-26T00:42:59.565Z,101292.13
2019-02-26T00:45:33.555Z,101290.09
2019-02-26T00:48:05.640Z,101291.86
2019-02-26T00:50:39.819Z,101285.23
2019-02-26T00:53:12.305Z,101284.44
2019-02-26T00:55:44.712Z,101286.78
2019-02-26T00:58:17.100Z,101289.36
2019-02-26T01:00:49.522Z,101293.56
2019-02-26T01:03:21.912Z,101296.05
2019-02-26T01:05:54.234Z,101288.82
2019-02-26T01:08:26.612Z,101285.55
2019-02-26T01:10:59.918Z,101284.27
2019-02-26T01:13:33.084Z,101280.45
2019-02-26T01:16:05.508Z,101280.86
2019-02-26T01:18:37.866Z,101284.90
2019-02-26T01:21:10.263Z,101283.95
2019-02-26T01:23:42.723Z,101278.27
2019-02-26T01:26:15.147Z,101268.89
2019-02-26T01:28:49.003Z,101271.67
2019-02-26T01:31:24.688Z,101275.06
2019-02-26T01:33:57.376Z,101271.16
2019-02-26T01:36:29.936Z,101260.78
2019-02-26T01:39:02.325Z,101263.38
2019-02-26T01:41:36.681Z,101261.35
2019-02-26T01:44:09.067Z,101262.08
2019-02-26T01:46:41.476Z,101257.08
2019-02-26T01:49:13.857Z,101261.86
2019-02-26T01:51:47.926Z,101259.56
2019-02-26T01:54:20.338Z,101252.84
2019-02-26T01:56:53.461Z,101248.45
2019-02-26T01:59:25.897Z,101241.69
2019-02-26T02:01:58.319Z,101236.55
2019-02-26T02:04:32.105Z,101243.89
2019-02-26T02:07:06.086Z,101237.17
2019-02-26T02:09:38.547Z,101241.40
2019-02-26T02:12:11.121Z,101230.99
2019-02-26T02:14:43.520Z,101230.84
2019-02-26T02:17:15.992Z,101238.70
2019-02-26T02:19:48.366Z,101239.56
2019-02-26T02:22:21.365Z,101233.06
2019-02-26T02:24:55.598Z,101231.67
2019-02-26T02:27:30.347Z,101230.57
2019-02-26T02:30:02.026Z,101230.47
2019-02-26T02:32:35.509Z,101225.71
2019-02-26T02:35:10.042Z,101227.61
2019-02-26T02:37:42.146Z,101233.39
2019-02-26T02:40:14.574Z,101230.86
2019-02-26T02:42:49.168Z,101227.75
2019-02-26T02:45:21.402Z,101229.59
2019-02-26T02:47:57.812Z,101231.03
2019-02-26T02:50:28.049Z,101232.56
2019-02-26T02:53:02.087Z,101224.47
2019-02-26T02:55:34.562Z,101221.69
2019-02-26T02:58:06.972Z,101221.05
2019-02-26T03:00:39.348Z,101222.77
2019-02-26T03:03:11.752Z,101224.73
2019-02-26T03:05:45.887Z,101219.53
2019-02-26T03:08:19.476Z,101221.76
2019-02-26T03:10:52.473Z,101219.57
2019-02-26T03:13:25.467Z,101217.92
2019-02-26T03:16:01.450Z,101216.98
2019-02-26T03:18:32.989Z,101218.98
2019-02-26T03:21:05.349Z,101216.13
2019-02-26T03:23:40.376Z,101212.42
2019-02-26T03:26:14.796Z,101212.64
2019-02-26T03:28:48.153Z,101208.02
2019-02-26T03:31:19.981Z,101201.79
2019-02-26T03:33:59.950Z,101200.17
2019-02-26T03:36:26.467Z,101198.17
2019-02-26T03:39:00.738Z,101194.52
2019-02-26T03:41:34.547Z,101190.81
2019-02-26T03:44:08.785Z,101190.08
2019-02-26T03:46:41.273Z,101187.39
2019-02-26T03:49:13.684Z,101183.01
2019-02-26T03:51:46.067Z,101184.69
2019-02-26T03:54:18.534Z,101180.66
2019-02-26T03:56:50.959Z,101185.77
2019-02-26T03:59:23.600Z,101182.20
2019-02-26T04:01:56.023Z,101185.60
2019-02-26T04:04:31.119Z,101186.80
2019-02-26T04:07:05.079Z,101182.72
2019-02-26T04:09:39.104Z,101180.50
2019-02-26T04:12:12.989Z,101178.28
2019-02-26T04:15:03.125Z,101171.09
2019-02-26T04:17:36.987Z,101164.65
2019-02-26T04:20:10.341Z,101166.05
2019-02-26T04:22:46.059Z,101165.28
2019-02-26T04:25:42.479Z,101159.45
2019-02-26T04:28:37.076Z,101162.50
2019-02-26T04:32:27.620Z,101169.18
2019-02-26T04:35:50.046Z,101170.66
2019-02-26T04:39:39.378Z,101166.63
2019-02-26T04:42:46.127Z,101167.16
2019-02-26T04:46:22.016Z,101170.42
2019-02-26T04:48:55.678Z,101166.78
2019-02-26T04:51:28.076Z,101161.91
2019-02-26T04:54:02.136Z,101158.27
2019-02-26T04:56:37.067Z,101170.47
2019-02-26T04:59:09.803Z,101164.77
2019-02-26T05:01:44.651Z,101167.71
2019-02-26T05:04:16.910Z,101172.53
2019-02-26T05:06:49.305Z,101167.46
2019-02-26T05:09:22.239Z,101165.72
2019-02-26T05:11:55.779Z,101163.88
2019-02-26T05:14:28.161Z,101164.77
2019-02-26T05:17:00.499Z,101164.73
2019-02-26T05:19:32.867Z,101159.50
2019-02-26T05:22:07.064Z,101159.69
2019-02-26T05:24:43.757Z,101159.34
2019-02-26T05:27:19.664Z,101163.48
2019-02-26T05:29:52.531Z,101170.11
2019-02-26T05:32:29.355Z,101170.73
2019-02-26T05:34:59.248Z,101172.98
2019-02-26T05:37:32.651Z,101166.52
2019-02-26T05:40:07.094Z,101164.38
2019-02-26T05:42:39.944Z,101159.91
2019-02-26T05:45:12.318Z,101154.39
2019-02-26T05:47:46.053Z,101155.59
2019-02-26T05:50:18.776Z,101162.70
2019-02-26T05:52:57.663Z,101167.83
2019-02-26T05:55:25.640Z,101164.12
2019-02-26T05:57:59.344Z,101163.92
2019-02-26T06:00:33.327Z,101168.64
2019-02-26T06:03:09.666Z,101165.89
2019-02-26T06:05:43.882Z,101164.91
2019-02-26T06:08:15.281Z,101171.14
2019-02-26T06:10:47.652Z,101172.97
2019-02-26T06:13:20.044Z,101182.30
2019-02-26T06:15:55.125Z,101182.34
2019-02-26T06:18:26.544Z,101189.23
2019-02-26T06:21:01.298Z,101191.28
2019-02-26T06:23:34.480Z,101193.11
2019-02-26T06:26:14.251Z,101191.94
2019-02-26T06:28:46.295Z,101189.98
2019-02-26T06:31:20.019Z,101192.54
2019-02-26T06:33:52.129Z,101197.86
2019-02-26T06:36:25.776Z,101197.94
2019-02-26T06:38:58.971Z,101203.02
2019-02-26T06:41:34.320Z,101210.87
2019-02-26T06:44:06.723Z,101212.77
2019-02-26T06:46:39.104Z,101218.83
2019-02-26T06:49:11.493Z,101233.39
2019-02-26T06:51:45.070Z,101230.23
2019-02-26T06:54:19.650Z,101231.28
2019-02-26T06:56:52.848Z,101227.58
2019-02-26T06:59:32.489Z,101233.82
2019-02-26T07:02:04.806Z,101239.22
2019-02-26T07:04:37.211Z,101244.88
2019-02-26T07:07:13.786Z,101245.45
2019-02-26T07:09:43.991Z,101240.83
2019-02-26T07:12:16.952Z,101238.72
2019-02-26T07:14:52.671Z,101236.77
2019-02-26T07:17:26.860Z,101240.27
2019-02-26T07:20:00.300Z,101234.03
2019-02-26T07:22:32.735Z,101235.59
2019-02-26T07:25:08.350Z,101231.41
2019-02-26T07:27:40.678Z,101225.02
2019-02-26T07:30:13.098Z,101219.87
2019-02-26T07:32:48.039Z,101220.35
2019-02-26T07:35:19.551Z,101218.63
2019-02-26T07:37:52.716Z,101215.98
2019-02-26T07:40:27.797Z,101218.52
2019-02-26T07:43:00.138Z,101220.16
2019-02-26T07:45:32.547Z,101218.62
2019-02-26T07:48:04.935Z,101221.50
2019-02-26T07:50:40.026Z,101228.59
2019-02-26T07:53:12.256Z,101221.15
2019-02-26T07:55:45.537Z,101212.65
2019-02-26T07:58:18.041Z,101207.45
2019-02-26T08:00:52.199Z,101207.58
2019-02-26T08:03:26.884Z,101203.67
2019-02-26T08:05:59.437Z,101200.91
2019-02-26T08:08:32.757Z,101197.00
2019-02-26T08:11:05.182Z,101190.61
2019-02-26T08:13:37.581Z,101188.76
2019-02-26T08:16:09.918Z,101189.30
2019-02-26T08:18:42.309Z,101190.28
2019-02-26T08:21:14.706Z,101190.34
2019-02-26T08:23:48.328Z,101192.38
2019-02-26T08:26:22.043Z,101187.22
2019-02-26T08:28:56.150Z,101183.47
2019-02-26T08:31:28.576Z,101189.73
2019-02-26T08:34:00.966Z,101183.44
2019-02-26T08:36:33.441Z,101182.77
2019-02-26T08:39:08.392Z,101179.20
2019-02-26T08:41:58.074Z,101181.16
2019-02-26T08:44:30.467Z,101177.73
2019-02-26T08:47:06.052Z,101175.38
2019-02-26T08:49:40.118Z,101175.84
2019-02-26T08:52:12.078Z,101177.34
2019-02-26T08:54:45.486Z,101175.14
2019-02-26T08:57:17.884Z,101175.27
2019-02-26T08:59:52.282Z,101170.34
2019-02-26T09:02:25.474Z,101170.29
2019-02-26T09:04:59.280Z,101168.84
2019-02-26T09:07:31.976Z,101167.25
2019-02-26T09:10:07.081Z,101161.45
2019-02-26T09:12:39.011Z,101164.86
2019-02-26T09:15:15.787Z,101170.84
2019-02-26T09:17:48.268Z,101171.41
2019-02-26T09:20:20.661Z,101166.16
2019-02-26T09:22:54.504Z,101168.63
2019-02-26T09:25:28.694Z,101166.73
2019-02-26T09:28:01.242Z,101167.67
2019-02-26T09:30:35.696Z,101166.88
2019-02-26T09:33:10.908Z,101165.11
2019-02-26T09:35:42.907Z,101160.52
2019-02-26T09:38:17.549Z,101160.69
2019-02-26T09:40:50.008Z,101163.36
2019-02-26T09:43:24.491Z,101162.34
2019-02-26T09:45:58.049Z,101156.41
2019-02-26T09:48:30.383Z,101161.69
2019-02-26T09:51:04.755Z,101153.66
2019-02-26T09:53:36.876Z,101156.91
2019-02-26T09:56:09.277Z,101152.55
2019-02-26T09:58:45.267Z,101154.84
2019-02-26T10:01:17.939Z,101155.52
2019-02-26T10:03:49.885Z,101154.27
2019-02-26T10:06:23.560Z,101152.72
2019-02-26T10:08:56.210Z,101154.23
2019-02-26T10:11:29.595Z,101153.68
2019-02-26T10:14:02.941Z,101150.41
2019-02-26T10:16:36.081Z,101149.58
2019-02-26T10:19:10.291Z,101147.43
2019-02-26T10:21:44.853Z,101143.28
2019-02-26T10:24:20.406Z,101144.77
2019-02-26T10:26:50.759Z,101149.59
2019-02-26T10:29:23.164Z,101140.20
2019-02-26T10:31:56.718Z,101143.52
2019-02-26T10:34:30.380Z,101148.53
2019-02-26T10:37:02.848Z,101144.66
2019-02-26T10:39:36.329Z,101147.36
2019-02-26T10:42:08.742Z,101142.16
2019-02-26T10:44:42.684Z,101140.48
2019-02-26T10:47:15.214Z,101148.36
2019-02-26T10:49:49.008Z,101136.88
2019-02-26T10:52:23.883Z,101134.27
2019-02-26T10:54:55.811Z,101136.01
2019-02-26T10:57:28.808Z,101135.95
2019-02-26T11:00:04.850Z,101139.69
2019-02-26T11:02:38.051Z,101141.27
2019-02-26T11:05:11.375Z,101137.05
2019-02-26T11:07:44.556Z,101135.41
2019-02-26T11:10:19.570Z,101130.88
2019-02-26T11:12:53.539Z,101131.72
2019-02-26T11:15:26.941Z,101127.80
2019-02-26T11:17:59.216Z,101121.97
2019-02-26T11:20:34.081Z,101125.00
2019-02-26T11:23:08.393Z,101124.47
2019-02-26T11:25:40.150Z,101122.23
2019-02-26T11:28:13.087Z,101117.49
2019-02-26T11:30:46.539Z,101115.45
2019-02-26T11:33:19.605Z,101115.45
2019-02-26T11:35:51.990Z,101114.52
2019-02-26T11:38:24.405Z,101108.20
2019-02-26T11:40:56.808Z,101109.20
2019-02-26T11:43:29.220Z,101103.70
2019-02-26T11:46:03.716Z,101101.90
2019-02-26T11:48:35.738Z,101100.27
2019-02-26T11:51:08.117Z,101101.09
2019-02-26T11:53:40.438Z,101102.16
2019-02-26T11:56:13.628Z,101101.02
2019-02-26T11:58:47.007Z,101101.33
2019-02-26T12:01:19.471Z,101094.61
2019-02-26T12:03:55.769Z,101095.09
2019-02-26T12:06:25.965Z,101087.11
2019-02-26T12:08:58.363Z,101091.55
2019-02-26T12:11:30.734Z,101086.25
2019-02-26T12:14:03.171Z,101083.60
2019-02-26T12:16:35.568Z,101085.20
2019-02-26T12:19:08.695Z,101081.28
2019-02-26T12:21:42.214Z,101077.16
2019-02-26T12:24:14.610Z,101078.23
2019-02-26T12:26:47.715Z,101073.87
2019-02-26T12:29:23.447Z,101075.16
2019-02-26T12:31:55.742Z,101073.42
2019-02-26T12:34:29.262Z,101078.57
2019-02-26T12:37:02.635Z,101070.22
2019-02-26T12:39:35.735Z,101068.02
2019-02-26T12:42:10.675Z,101063.47
2019-02-26T12:44:45.209Z,101056.03
2019-02-26T12:47:18.740Z,101053.67
2019-02-26T12:49:50.455Z,101054.17
2019-02-26T12:52:25.120Z,101054.19
2019-02-26T12:54:57.834Z,101050.81
2019-02-26T12:57:31.615Z,101047.87
2019-02-26T13:00:06.890Z,101046.09
2019-02-26T13:02:43.202Z,101041.77
2019-02-26T13:05:18.936Z,101041.36
2019-02-26T13:07:48.708Z,101032.16
2019-02-26T13:10:22.224Z,101030.23
2019-02-26T13:12:59.321Z,101029.33
2019-02-26T13:15:28.860Z,101029.28
2019-02-26T13:18:01.267Z,101027.66
2019-02-26T13:20:33.673Z,101025.86
2019-02-26T13:23:21.885Z,101017.80
2019-02-26T13:25:40.074Z,101008.57
2019-02-26T13:28:12.488Z,101001.97
2019-02-26T13:30:44.902Z,101001.58
2019-02-26T13:33:18.206Z,101000.00
2019-02-26T13:35:58.201Z,100996.39
2019-02-26T13:38:34.148Z,100994.39
2019-02-26T13:41:19.903Z,100993.62
2019-02-26T13:43:33.879Z,100987.39
2019-02-26T13:46:06.290Z,100986.45
2019-02-26T13:48:38.719Z,100981.09
2019-02-26T13:51:11.116Z,100978.84
2019-02-26T13:53:43.494Z,100977.87
2019-02-26T13:56:15.913Z,100980.35
2019-02-26T13:58:48.302Z,100976.64
2019-02-26T14:01:20.699Z,100970.75
2019-02-26T14:03:53.142Z,100973.65
2019-02-26T14:06:25.562Z,100972.22
2019-02-26T14:08:58.138Z,100966.00
2019-02-26T14:11:30.449Z,100961.92
2019-02-26T14:14:02.828Z,100964.00
2019-02-26T14:16:35.570Z,100960.09
2019-02-26T14:19:07.984Z,100959.84
2019-02-26T14:21:40.387Z,100953.51
2019-02-26T14:24:12.758Z,100951.74
2019-02-26T14:26:45.157Z,100947.17
2019-02-26T14:29:17.660Z,100948.45
2019-02-26T14:31:50.155Z,100943.09
2019-02-26T14:34:22.617Z,100940.52
2019-02-26T14:36:55.807Z,100936.27
2019-02-26T14:39:28.280Z,100932.41
2019-02-26T14:42:00.706Z,100931.55
2019-02-26T14:44:33.082Z,100928.80
2019-02-26T14:47:05.775Z,100925.20
2019-02-26T14:49:38.165Z,100922.14
2019-02-26T14:52:10.511Z,100923.69
2019-02-26T14:54:42.905Z,100922.41
2019-02-26T14:57:15.866Z,100918.00
2019-02-26T14:59:48.258Z,100916.66
2019-02-26T15:02:20.681Z,100912.08
2019-02-26T15:04:53.070Z,100912.48
2019-02-26T15:07:25.475Z,100907.05
2019-02-26T15:09:57.861Z,100905.75
2019-02-26T15:12:30.285Z,100902.22
2019-02-26T15:15:04.439Z,100899.15
2019-02-26T15:17:36.941Z,100898.93
2019-02-26T15:20:13.405Z,100893.00
2019-02-26T15:22:46.005Z,100888.90
2019-02-26T15:25:21.017Z,100888.43
2019-02-26T15:27:54.389Z,100883.96
2019-02-26T15:30:28.365Z,100882.28
2019-02-26T15:33:00.788Z,100886.86
2019-02-26T15:35:33.154Z,100876.12
2019-02-26T15:38:05.812Z,100879.81
2019-02-26T15:40:38.224Z,100873.48
2019-02-26T15:43:10.703Z,100871.33
2019-02-26T15:45:51.591Z,100873.20
2019-02-26T15:48:17.230Z,100873.33
2019-02-26T15:50:49.635Z,100876.33
2019-02-26T15:53:23.864Z,100874.67
2019-02-26T15:55:59.155Z,100880.53
2019-02-26T15:58:30.205Z,100877.58
2019-02-26T16:01:02.596Z,100877.50
2019-02-26T16:03:35.120Z,100877.94
2019-02-26T16:06:07.576Z,100877.27
2019-02-26T16:08:41.280Z,100877.48
2019-02-26T16:11:14.064Z,100875.48
2019-02-26T16:13:46.751Z,100877.61
2019-02-26T16:16:19.134Z,100878.45
2019-02-26T16:18:51.542Z,100874.34
2019-02-26T16:21:25.602Z,100873.75
2019-02-26T16:23:58.621Z,100878.96
2019-02-26T16:26:31.015Z,100875.61
2019-02-26T16:29:03.725Z,100878.77
2019-02-26T16:31:36.124Z,100872.69
2019-02-26T16:34:08.551Z,100872.70
2019-02-26T16:36:40.927Z,100874.73
2019-02-26T16:39:13.323Z,100879.00
2019-02-26T16:41:45.741Z,100877.68
2019-02-26T16:44:18.326Z,100880.48
2019-02-26T16:46:50.700Z,100886.95
2019-02-26T16:49:23.093Z,100888.20
2019-02-26T16:51:55.664Z,100891.44
2019-02-26T16:54:28.244Z,100892.38
2019-02-26T16:57:00.565Z,100891.99
2019-02-26T16:59:32.963Z,100888.33
2019-02-26T17:02:05.342Z,100892.53
2019-02-26T17:04:38.585Z,100893.95
2019-02-26T17:07:12.690Z,100900.20
2019-02-26T17:09:45.182Z,100895.60
2019-02-26T17:12:17.573Z,100899.95
2019-02-26T17:14:51.092Z,100894.55
2019-02-26T17:17:23.616Z,100897.71
2019-02-26T17:19:56.091Z,100896.83
2019-02-26T17:22:28.585Z,100895.60
2019-02-26T17:25:01.276Z,100900.78
2019-02-26T17:27:34.046Z,100900.93
2019-02-26T17:30:06.962Z,100896.80
2019-02-26T17:32:39.359Z,100896.05
2019-02-26T17:35:11.867Z,100896.29
2019-02-26T17:37:44.249Z,100891.98
2019-02-26T17:40:17.911Z,100894.63
2019-02-26T17:42:51.225Z,100895.17
2019-02-26T17:45:24.571Z,100902.97
2019-02-26T17:47:57.526Z,100899.59
2019-02-26T17:50:32.894Z,100901.91
2019-02-26T17:53:05.395Z,100903.66
2019-02-26T17:55:38.016Z,100912.91
2019-02-26T17:58:10.812Z,100913.66
2019-02-26T18:00:45.119Z,100907.73
2019-02-26T18:03:18.140Z,100907.25
2019-02-26T18:05:51.734Z,100910.72
2019-02-26T18:08:24.802Z,100915.48
2019-02-26T18:10:57.342Z,100911.53
2019-02-26T18:13:30.904Z,100911.09
2019-02-26T18:16:09.145Z,100912.79
2019-02-26T18:18:38.903Z,100912.22
2019-02-26T18:21:11.330Z,100914.97
2019-02-26T18:23:44.285Z,100913.45
2019-02-26T18:26:18.436Z,100911.05
2019-02-26T18:28:50.891Z,100913.66
2019-02-26T18:31:26.418Z,100914.14
2019-02-26T18:33:58.518Z,100911.56
2019-02-26T18:36:32.710Z,100914.53
2019-02-26T18:39:07.101Z,100917.02
2019-02-26T18:41:40.389Z,100919.38
2019-02-26T18:44:13.485Z,100924.47
2019-02-26T18:46:47.480Z,100926.38
2019-02-26T18:49:21.836Z,100924.97
2019-02-26T18:51:55.311Z,100927.59
2019-02-26T18:54:29.391Z,100920.14
2019-02-26T18:57:01.793Z,100927.10
2019-02-26T18:59:35.369Z,100926.05
2019-02-26T19:02:09.560Z,100932.86
2019-02-26T19:04:42.014Z,100930.92
2019-02-26T19:07:15.322Z,100931.17
2019-02-26T19:09:49.365Z,100925.14
2019-02-26T19:12:23.326Z,100923.97
2019-02-26T19:14:56.821Z,100927.31
2019-02-26T19:17:29.303Z,100926.10
2019-02-26T19:20:01.733Z,100922.83
2019-02-26T19:22:37.289Z,100926.63
2019-02-26T19:25:10.543Z,100924.97
2019-02-26T19:27:43.555Z,100931.04
2019-02-26T19:30:18.116Z,100929.17
2019-02-26T19:32:51.007Z,100927.04
2019-02-26T19:35:24.061Z,100927.91
2019-02-26T19:37:58.463Z,100926.29
2019-02-26T19:40:38.653Z,100927.78
2019-02-26T19:43:09.812Z,100927.79
2019-02-26T19:45:44.816Z,100927.86
2019-02-26T19:48:18.027Z,100927.14
2019-02-26T19:50:50.885Z,100929.02
2019-02-26T19:53:23.805Z,100923.73
2019-02-26T19:55:56.502Z,100932.27
2019-02-26T19:58:29.430Z,100922.99
2019-02-26T20:01:03.490Z,100923.70
2019-02-26T20:03:40.099Z,100928.07
2019-02-26T20:06:11.536Z,100927.02
2019-02-26T20:08:47.237Z,100925.42
2019-02-26T20:11:22.372Z,100921.34
2019-02-26T20:14:04.350Z,100917.81
2019-02-26T20:16:31.163Z,100914.02
2019-02-26T20:19:06.140Z,100914.23
2019-02-26T20:21:39.435Z,100915.96
2019-02-26T20:24:16.250Z,100914.92
2019-02-26T20:26:49.940Z,100914.68
2019-02-26T20:29:23.878Z,100915.69
2019-02-26T20:31:57.787Z,100914.72
2019-02-26T20:34:30.682Z,100917.27
2019-02-26T20:37:04.596Z,100909.41
2019-02-26T20:39:40.886Z,100904.12
2019-02-26T20:42:13.639Z,100910.03
2019-02-26T20:44:46.835Z,100914.39
2019-02-26T20:47:19.731Z,100903.36
2019-02-26T20:49:52.487Z,100902.45
2019-02-26T20:52:25.392Z,100902.13
2019-02-26T20:54:58.758Z,100897.64
2019-02-26T20:57:31.296Z,100898.98
2019-02-26T21:00:04.513Z,100901.20
2019-02-26T21:02:38.429Z,100905.25
2019-02-26T21:05:11.076Z,100903.18
2019-02-26T21:07:44.037Z,100895.66
2019-02-26T21:10:17.825Z,100900.36
2019-02-26T21:12:50.879Z,100893.97
2019-02-26T21:15:23.945Z,100893.39
2019-02-26T21:17:58.613Z,100896.49
2019-02-26T21:20:31.086Z,100896.45
2019-02-26T21:23:04.179Z,100893.94
2019-02-26T21:25:38.157Z,100896.23
2019-02-26T21:28:10.943Z,100894.70
2019-02-26T21:30:45.601Z,100896.61
2019-02-26T21:33:19.012Z,100898.00
2019-02-26T21:35:53.894Z,100898.67
2019-02-26T21:38:26.022Z,100899.53
2019-02-26T21:40:59.047Z,100891.77
2019-02-26T21:43:34.636Z,100892.47
2019-02-26T21:46:06.714Z,100893.23
2019-02-26T21:48:39.501Z,100888.17
2019-02-26T21:51:12.630Z,100885.50
2019-02-26T21:53:46.672Z,100891.27
2019-02-26T21:56:20.922Z,100888.72
2019-02-26T21:58:56.887Z,100894.00
2019-02-26T22:01:30.194Z,100896.09
2019-02-26T22:04:03.111Z,100894.87
2019-02-26T22:06:37.146Z,100893.80
2019-02-26T22:09:10.237Z,100893.42
2019-02-26T22:11:43.639Z,100889.30
2019-02-26T22:14:17.840Z,100889.81
2019-02-26T22:16:51.498Z,100892.13
2019-02-26T22:19:26.011Z,100890.20
2019-02-26T22:21:59.683Z,100890.29
2019-02-26T22:24:32.780Z,100888.56
2019-02-26T22:27:06.107Z,100893.83
2019-02-26T22:29:38.511Z,100891.17
2019-02-26T22:32:10.916Z,100891.29
2019-02-26T22:34:44.861Z,100890.25
2019-02-26T22:37:17.470Z,100890.13
2019-02-26T22:40:10.419Z,100891.53
2019-02-26T22:42:43.435Z,100894.27
2019-02-26T22:45:17.604Z,100888.28
2019-02-26T22:47:50.622Z,100887.94
2019-02-26T22:50:24.915Z,100885.09
2019-02-26T22:53:03.764Z,100879.63
2019-02-26T22:55:36.285Z,100875.41
2019-02-26T22:58:09.393Z,100879.34
2019-02-26T23:01:30.806Z,100876.23
2019-02-26T23:04:06.277Z,100874.04
2019-02-26T23:06:39.341Z,100879.53
2019-02-26T23:09:21.376Z,100873.74
2019-02-26T23:11:54.634Z,100875.91
2019-02-26T23:14:28.400Z,100873.67
2019-02-26T23:17:01.640Z,100877.30
2019-02-26T23:19:36.671Z,100877.64
2019-02-26T23:22:09.950Z,100874.70
2019-02-26T23:24:44.434Z,100874.44
2019-02-26T23:27:18.374Z,100874.48
2019-02-26T23:29:50.894Z,100870.34
2019-02-26T23:32:24.106Z,100869.50
2019-02-26T23:35:05.679Z,100869.28
2019-02-26T23:37:39.630Z,100866.70
2019-02-26T23:40:12.929Z,100865.99
2019-02-26T23:42:46.005Z,100865.67
2019-02-26T23:45:19.184Z,100865.33
2019-02-26T23:47:52.395Z,100863.13
2019-02-26T23:50:25.397Z,100867.58
2019-02-26T23:53:00.939Z,100868.96
2019-02-26T23:55:34.261Z,100868.45
2019-02-26T23:58:07.188Z,100864.21
